Homestead ARB Airport
KHST : now visible

Airfield :











YOU CAN JOIN US ON...

 
LOGIN :

Register | Disclaimer

   EN    FR    IT 

 









Legend :    VFR   Marginal VFR   IFR   Intensive IFR   Very Intensive IFR
Visi :
Ceiling :
>= 8 km
>= 3000ft
5 to 8 km
1000 to 3000 ft
1500m to 5 km
500 to 1000 ft
800 to 1500m
200 to 500 ft
< 800m
< 200 ft
Symbols :   Thunderstorms  Fog  Heavy snow  Heavy precipitations  Wind > 20 kt






- Airport Elevation : 5 ft


KHST - Homestead ARB

CURRENT METAR :
  • 301656Z 16006KT 10SM FEW028 SCT050 SCT180 32/24 A3007 RMK AO2A SLP186 T03190237

EXPIRED METARs :
  • 301556Z 17004KT 10SM FEW028 SCT180 31/24 A3009 RMK AO2A SLP193 T03140240
  • 301456Z 15003KT 10SM FEW046 SCT190 SCT220 28/24 A3009 RMK AO2A SLP193 T02780236 52015

TAF AMD TAF KHST
Valid from the 30 at 13:00 until the 31 at 17:00 UTC


301300Z 3013/3117 VRB06KT 9999 VCTS FEW025CB SCT045 SCT150 QNH3001INS
TEMPO 3014/3024 VRB12G18KT 4800 -TSRA SCT025CB BKN045
BECMG 3100/3101 17006KT 9999 VCSH FEW025 SCT045 BKN150 QNH3004INS
BECMG 3104/3105 16005KT 9999 NSW FEW025 SCT050 SCT100 QNH3002INS TX33/3019Z TN25/3110Z
KZMA FIR / North America



MET'MAP, your aeronautical weather chart ! - Copyright ORBIFLY December 2007 - Disclaimer

ORBIFLY MET'MAP TEAM :

Programming & Development : Alexandra Zaïnal
Concept & original design : Baudouin d'Aumeries
Assistance for programming : Marc-Olivier Méhu
Technical & hardware support : Manuel Goepfert

Contact : metmap@orbifly.com




SOURCES & CREDITS :

   NOAA       Earth
Advisory